Time;durP1;ratioP1;P1;durP2;ratioP2;P2;SDS_P1;SDS_P2;PMS_P1;PMS_P2;Temp;Humidity;BMP_temperature;BMP_pressure;BME280_temperature;BME280_humidity;BME280_pressure;Samples;Min_cycle;Max_cycle;Signal;HPM_P1;HPM_P2
2022/05/02 00:01:36;;;;;;;6.10;2.70;;;;;10.00;97677.40;;;;111480;1244;42325;-67
2022/05/02 00:04:06;;;;;;;7.40;2.80;;;;;10.00;97673.40;;;;111568;1244;41139;-67
2022/05/02 00:06:36;;;;;;;7.10;2.80;;;;;9.98;97677.40;;;;111478;1244;41720;-66
2022/05/02 00:09:05;;;;;;;5.40;2.50;;;;;9.90;97673.20;;;;111723;1241;41127;-67
2022/05/02 00:11:36;;;;;;;;;;;;;9.90;97676.80;;;;111737;1241;41788;-67
2022/05/02 00:14:06;;;;;;;6.30;2.60;;;;;9.90;97671.40;;;;111644;1241;41879;-67
2022/05/02 00:16:36;;;;;;;8.40;3.30;;;;;9.90;97669.60;;;;111548;1244;41129;-67
2022/05/02 00:19:06;;;;;;;5.80;2.60;;;;;9.90;97672.80;;;;111717;1241;41150;-68
2022/05/02 00:21:36;;;;;;;7.70;2.60;;;;;9.90;97669.40;;;;111552;1241;41136;-67
2022/05/02 00:24:08;;;;;;;8.30;2.60;;;;;9.94;97668.00;;;;111736;1241;41683;-67
2022/05/02 00:26:38;;;;;;;6.90;2.60;;;;;10.00;97668.60;;;;111453;1241;41584;-67
2022/05/02 00:29:08;;;;;;;6.20;2.70;;;;;10.00;97670.00;;;;111441;1245;41919;-66
2022/05/02 00:31:38;;;;;;;5.40;2.50;;;;;10.00;97668.20;;;;111319;1246;41201;-67
2022/05/02 00:34:08;;;;;;;5.80;2.40;;;;;10.00;97674.40;;;;111415;1244;41120;-67
2022/05/02 00:36:38;;;;;;;6.00;2.60;;;;;10.00;97670.80;;;;111473;1244;41143;-67
2022/05/02 00:39:09;;;;;;;6.00;2.40;;;;;9.90;97667.00;;;;111721;1242;41716;-67
2022/05/02 00:41:39;;;;;;;6.00;2.70;;;;;9.90;97666.80;;;;111391;1243;41172;-66
2022/05/02 00:44:08;;;;;;;7.20;2.30;;;;;9.90;97668.40;;;;111712;1240;41438;-67
2022/05/02 00:46:39;;;;;;;9.30;2.90;;;;;9.80;97670.20;;;;111257;1246;41149;-67
2022/05/02 00:49:09;;;;;;;6.80;2.40;;;;;9.80;97669.00;;;;111677;1242;41580;-67
2022/05/02 00:51:40;;;;;;;5.70;2.50;;;;;9.76;97669.40;;;;111705;1241;41153;-68
2022/05/02 00:54:10;;;;;;;6.00;2.60;;;;;9.70;97669.40;;;;111672;1242;41611;-67
2022/05/02 00:56:41;;;;;;;;;;;;;9.70;97666.40;;;;111440;1244;41707;-67
2022/05/02 00:59:14;;;;;;;7.30;2.80;;;;;9.70;97661.00;;;;111588;1241;41406;-67
2022/05/02 01:01:44;;;;;;;7.10;2.80;;;;;9.80;97660.60;;;;111352;1244;41603;-66
2022/05/02 01:04:16;;;;;;;7.00;2.80;;;;;9.80;97664.20;;;;111387;1244;42362;-67
2022/05/02 01:09:35;;;;;;;6.10;2.60;;;;;9.80;97663.00;;;;111611;1241;41149;-66
2022/05/02 01:12:26;;;;;;;7.10;2.80;;;;;9.80;97660.20;;;;111414;1244;41166;-67
2022/05/02 01:14:57;;;;;;;6.90;2.70;;;;;9.80;97661.80;;;;111684;1241;42839;-67
2022/05/02 01:17:28;;;;;;;5.50;2.40;;;;;9.70;97660.60;;;;111564;1244;40723;-68
2022/05/02 01:19:58;;;;;;;6.60;2.70;;;;;9.66;97658.20;;;;111507;1242;41246;-68
2022/05/02 01:22:29;;;;;;;7.60;3.30;;;;;9.60;97661.80;;;;111736;1241;41926;-68
2022/05/02 01:25:00;;;;;;;6.70;2.90;;;;;9.56;97658.60;;;;111490;1243;41154;-68
2022/05/02 01:27:30;;;;;;;6.50;2.90;;;;;9.50;97663.00;;;;111804;1240;41213;-68
2022/05/02 01:30:00;;;;;;;7.50;2.90;;;;;9.50;97662.60;;;;111718;1241;41159;-68
2022/05/02 01:32:31;;;;;;;;;;;;;9.40;97661.60;;;;111711;1243;42545;-68
2022/05/02 01:35:03;;;;;;;7.60;2.40;;;;;9.40;97663.60;;;;111753;1241;42974;-68
2022/05/02 01:37:32;;;;;;;;;;;;;9.40;97664.20;;;;111730;1241;41581;-68
2022/05/02 01:40:04;;;;;;;6.70;2.60;;;;;9.38;97661.80;;;;111489;1244;41128;-67
2022/05/02 01:42:34;;;;;;;5.70;2.50;;;;;9.38;97659.00;;;;111716;1244;41127;-68
2022/05/02 01:45:05;;;;;;;7.20;2.70;;;;;9.32;97659.40;;;;111727;1243;41384;-67
2022/05/02 01:47:37;;;;;;;7.30;2.70;;;;;9.32;97657.40;;;;111558;1244;41710;-67
2022/05/02 01:50:08;;;;;;;6.90;2.90;;;;;9.32;97659.60;;;;111410;1244;41251;-67
2022/05/02 01:52:38;;;;;;;;;;;;;9.38;97653.40;;;;111538;1243;41249;-67
2022/05/02 01:55:08;;;;;;;8.50;2.80;;;;;9.40;97650.60;;;;111417;1244;41140;-67
2022/05/02 01:57:40;;;;;;;5.60;2.50;;;;;9.40;97654.40;;;;111364;1244;41145;-68
2022/05/02 02:00:11;;;;;;;7.70;2.80;;;;;9.40;97649.00;;;;111509;1243;41603;-68
2022/05/02 02:02:45;;;;;;;6.20;2.80;;;;;9.40;97646.60;;;;111427;1244;41137;-67
2022/05/02 02:08:19;;;;;;;6.70;2.70;;;;;9.40;97648.40;;;;111648;1241;41430;-67
2022/05/02 02:10:50;;;;;;;7.10;2.90;;;;;9.30;97646.20;;;;111520;1244;41182;-67
2022/05/02 02:13:21;;;;;;;7.40;2.70;;;;;9.20;97643.20;;;;111380;1246;41354;-68
2022/05/02 02:15:51;;;;;;;6.80;2.70;;;;;9.20;97640.60;;;;111451;1244;41146;-68
2022/05/02 02:18:22;;;;;;;7.80;2.90;;;;;9.20;97639.80;;;;111703;1241;41381;-68
2022/05/02 02:20:56;;;;;;;7.40;2.70;;;;;9.20;97642.80;;;;111455;1244;41126;-68
2022/05/02 02:23:27;;;;;;;7.20;2.90;;;;;9.20;97634.80;;;;111728;1242;41140;-68
2022/05/02 02:25:58;;;;;;;7.20;3.00;;;;;9.20;97634.00;;;;111461;1244;41364;-67
2022/05/02 02:28:29;;;;;;;6.50;2.80;;;;;9.16;97633.40;;;;111511;1244;41237;-67
2022/05/02 02:30:59;;;;;;;7.10;3.00;;;;;9.20;97633.00;;;;111688;1242;41138;-68
2022/05/02 02:33:29;;;;;;;6.90;3.10;;;;;9.20;97636.40;;;;111539;1242;41175;-68
2022/05/02 02:36:00;;;;;;;7.80;3.50;;;;;9.20;97631.80;;;;111413;1244;41599;-66
2022/05/02 02:38:30;;;;;;;7.50;3.30;;;;;9.20;97635.40;;;;111625;1242;41709;-69
2022/05/02 02:40:59;;;;;;;7.20;3.10;;;;;9.20;97637.00;;;;111540;1244;41766;-68
2022/05/02 02:43:30;;;;;;;9.30;3.10;;;;;9.22;97639.60;;;;111670;1241;41198;-68
2022/05/02 02:45:59;;;;;;;6.70;2.80;;;;;9.30;97642.80;;;;111631;1243;41705;-67
2022/05/02 02:48:29;;;;;;;6.00;2.50;;;;;9.20;97641.20;;;;111743;1241;41134;-67
2022/05/02 02:51:02;;;;;;;7.60;2.80;;;;;9.20;97641.00;;;;111497;1244;41901;-68
2022/05/02 02:53:33;;;;;;;8.00;3.00;;;;;9.10;97639.00;;;;111743;1243;41471;-68
2022/05/02 02:56:03;;;;;;;8.70;2.60;;;;;9.10;97641.60;;;;111379;1244;41129;-68
2022/05/02 02:58:32;;;;;;;5.60;2.40;;;;;9.02;97642.80;;;;111429;1244;41126;-68
2022/05/02 03:01:03;;;;;;;6.70;2.80;;;;;9.00;97645.40;;;;111672;1243;41968;-67
2022/05/02 03:03:33;;;;;;;6.50;2.80;;;;;8.92;97649.20;;;;111767;1241;41205;-67
2022/05/02 03:06:05;;;;;;;7.00;2.80;;;;;8.90;97646.00;;;;111362;1245;41244;-68
2022/05/02 03:08:36;;;;;;;;;;;;;8.90;97645.60;;;;111291;1245;41936;-66
2022/05/02 03:11:07;;;;;;;9.50;3.70;;;;;8.82;97646.00;;;;111755;1243;41691;-67
2022/05/02 03:13:37;;;;;;;7.20;3.00;;;;;8.80;97647.40;;;;111735;1244;41243;-66
2022/05/02 03:16:07;;;;;;;7.30;3.40;;;;;8.78;97647.80;;;;111677;1241;41582;-67
2022/05/02 03:18:37;;;;;;;7.20;2.90;;;;;8.70;97649.00;;;;111404;1241;41248;-67
2022/05/02 03:21:06;;;;;;;6.60;2.70;;;;;8.60;97645.20;;;;111622;1241;42523;-66
2022/05/02 03:23:36;;;;;;;6.50;2.80;;;;;8.60;97650.20;;;;111463;1241;42157;-67
2022/05/02 03:26:06;;;;;;;7.50;3.20;;;;;8.60;97654.60;;;;111406;1244;41554;-65
2022/05/02 03:28:35;;;;;;;7.80;3.50;;;;;8.60;97656.80;;;;111451;1243;41248;-66
2022/05/02 03:31:05;;;;;;;6.10;2.80;;;;;8.60;97654.20;;;;111712;1242;41372;-68
2022/05/02 03:33:35;;;;;;;;;;;;;8.50;97654.00;;;;111490;1241;41170;-67
2022/05/02 03:36:05;;;;;;;7.80;3.10;;;;;8.50;97660.80;;;;111444;1244;41249;-67
2022/05/02 03:38:34;;;;;;;7.30;2.80;;;;;8.50;97657.40;;;;111560;1243;41647;-67
2022/05/02 03:41:04;;;;;;;6.20;2.60;;;;;8.50;97661.20;;;;111390;1244;41521;-67
2022/05/02 03:43:34;;;;;;;6.30;2.70;;;;;8.50;97662.40;;;;111538;1241;41255;-67
2022/05/02 03:46:03;;;;;;;5.30;2.30;;;;;8.50;97658.80;;;;111482;1244;41363;-67
2022/05/02 03:48:33;;;;;;;6.40;2.70;;;;;8.50;97660.00;;;;111469;1244;41130;-66
2022/05/02 03:51:03;;;;;;;6.20;2.50;;;;;8.54;97663.00;;;;111758;1241;41247;-67
2022/05/02 03:53:32;;;;;;;7.00;2.40;;;;;8.60;97665.00;;;;111732;1243;41166;-66
2022/05/02 03:56:02;;;;;;;6.50;2.50;;;;;8.70;97663.20;;;;111473;1244;41134;-66
2022/05/02 03:58:31;;;;;;;6.80;2.10;;;;;8.70;97667.00;;;;111624;1242;41338;-66
2022/05/02 04:01:01;;;;;;;7.00;3.00;;;;;8.80;97667.60;;;;111646;1241;41347;-66
2022/05/02 04:03:30;;;;;;;8.10;3.10;;;;;8.90;97665.80;;;;111331;1244;41262;-66
2022/05/02 04:06:00;;;;;;;8.10;3.80;;;;;9.10;97666.00;;;;111728;1241;41137;-66
2022/05/02 04:08:29;;;;;;;8.80;4.10;;;;;9.40;97666.60;;;;111673;1242;41519;-67
2022/05/02 04:10:58;;;;;;;10.10;4.20;;;;;9.58;97665.60;;;;111663;1242;41867;-66
2022/05/02 04:13:28;;;;;;;9.20;4.20;;;;;9.70;97666.20;;;;111784;1242;41250;-66
2022/05/02 04:15:57;;;;;;;9.60;4.20;;;;;9.82;97670.60;;;;111460;1244;41168;-66
2022/05/02 04:18:27;;;;;;;8.80;3.90;;;;;10.00;97671.40;;;;111494;1244;41685;-66
2022/05/02 04:20:56;;;;;;;10.00;4.00;;;;;10.20;97667.80;;;;111620;1241;41253;-66
2022/05/02 04:23:26;;;;;;;10.00;4.60;;;;;10.40;97665.20;;;;111469;1241;41137;-66
2022/05/02 04:25:56;;;;;;;;;;;;;10.58;97660.00;;;;111770;1241;41161;-67
2022/05/02 04:28:25;;;;;;;10.70;4.50;;;;;10.70;97665.40;;;;111444;1244;41254;-67
2022/05/02 04:30:55;;;;;;;9.60;4.00;;;;;10.90;97660.60;;;;111392;1244;41257;-67
2022/05/02 04:33:25;;;;;;;9.00;4.10;;;;;11.28;97653.40;;;;111335;1244;41172;-67
2022/05/02 04:35:54;;;;;;;8.20;4.00;;;;;11.70;97650.80;;;;111349;1244;41163;-67
2022/05/02 04:38:26;;;;;;;7.80;3.50;;;;;12.10;97642.00;;;;111425;1245;41151;-67
2022/05/02 04:41:00;;;;;;;7.90;3.00;;;;;12.50;97647.80;;;;111393;1243;41808;-66
2022/05/02 04:43:29;;;;;;;6.70;2.90;;;;;12.82;97641.40;;;;111538;1244;41152;-67
2022/05/02 04:45:59;;;;;;;7.10;3.10;;;;;13.10;97643.00;;;;111343;1245;41199;-68
2022/05/02 04:48:28;;;;;;;7.50;3.10;;;;;13.40;97646.20;;;;111374;1244;42129;-67
2022/05/02 04:50:57;;;;;;;8.30;3.30;;;;;13.70;97639.00;;;;111347;1243;41769;-68
2022/05/02 04:53:26;;;;;;;7.20;3.10;;;;;14.18;97634.80;;;;111324;1244;41157;-68
2022/05/02 04:55:56;;;;;;;8.20;3.20;;;;;14.60;97629.00;;;;111544;1244;41696;-68
2022/05/02 04:58:25;;;;;;;6.60;3.00;;;;;14.78;97633.40;;;;111495;1244;41579;-69
2022/05/02 05:00:54;;;;;;;8.00;3.40;;;;;15.10;97632.20;;;;111504;1244;41005;-68
2022/05/02 05:03:24;;;;;;;7.30;2.90;;;;;15.48;97626.60;;;;111517;1244;42018;-66
2022/05/02 05:05:54;;;;;;;5.90;2.60;;;;;15.88;97623.80;;;;111517;1244;42031;-67
2022/05/02 05:08:24;;;;;;;6.10;2.70;;;;;16.30;97618.80;;;;111534;1243;42017;-67
2022/05/02 05:11:10;;;;;;;7.80;3.10;;;;;16.80;97619.80;;;;111269;1244;41138;-67
2022/05/02 05:16:20;;;;;;;7.00;3.20;;;;;17.02;97616.40;;;;111512;1241;41139;-67
2022/05/02 05:17:02;;;;;;;7.10;3.30;;;;;17.54;97613.80;;;;111395;1244;41137;-66
2022/05/02 05:20:03;;;;;;;11.10;5.50;;;;;18.14;97608.00;;;;111436;1244;41137;-68
2022/05/02 05:22:40;;;;;;;16.00;9.10;;;;;18.74;97604.60;;;;111482;1244;41467;-67
2022/05/02 05:25:22;;;;;;;17.10;10.90;;;;;19.08;97597.80;;;;111500;1244;41151;-67
2022/05/02 05:28:09;;;;;;;14.20;8.10;;;;;19.50;97596.40;;;;111543;1243;41123;-67
2022/05/02 05:30:43;;;;;;;17.70;10.80;;;;;20.04;97585.00;;;;111727;1242;41187;-67
2022/05/02 05:33:25;;;;;;;13.60;7.10;;;;;20.48;97589.00;;;;111504;1244;41187;-67
2022/05/02 05:36:10;;;;;;;13.80;7.60;;;;;21.00;97582.00;;;;111773;1240;41159;-68
2022/05/02 05:39:01;;;;;;;20.20;7.20;;;;;21.20;97586.00;;;;111792;1244;41120;-67
2022/05/02 05:41:36;;;;;;;11.70;6.10;;;;;21.30;97589.20;;;;111780;1244;42549;-67
2022/05/02 05:44:14;;;;;;;9.30;4.20;;;;;21.50;97586.00;;;;111733;1241;42243;-67
2022/05/02 05:46:56;;;;;;;8.30;4.10;;;;;21.86;97582.00;;;;111648;1242;41158;-67
2022/05/02 05:49:57;;;;;;;10.30;3.50;;;;;21.76;97581.20;;;;111733;1241;41703;-68
2022/05/02 05:52:36;;;;;;;9.00;3.10;;;;;21.60;97580.40;;;;111652;1244;41443;-67
2022/05/02 05:55:09;;;;;;;6.40;2.80;;;;;21.46;97585.80;;;;111737;1244;42102;-68
2022/05/02 05:58:18;;;;;;;7.10;2.90;;;;;21.50;97587.00;;;;111542;1244;40859;-68
2022/05/02 06:00:50;;;;;;;6.70;3.00;;;;;21.74;97584.20;;;;111755;1244;41118;-67
2022/05/02 06:03:25;;;;;;;7.40;2.80;;;;;21.38;97585.80;;;;111833;1241;41245;-67
2022/05/02 06:05:54;;;;;;;7.00;2.40;;;;;21.10;97580.60;;;;111596;1245;41140;-67
2022/05/02 06:08:29;;;;;;;7.10;2.70;;;;;21.04;97580.00;;;;111727;1244;41428;-67
2022/05/02 06:10:59;;;;;;;6.40;2.50;;;;;20.94;97583.00;;;;111665;1244;41900;-67
2022/05/02 06:13:32;;;;;;;6.90;2.70;;;;;20.74;97584.40;;;;111434;1244;41130;-67
2022/05/02 06:19:14;;;;;;;6.80;2.30;;;;;20.70;97579.20;;;;111644;1244;41241;-66
2022/05/02 06:21:56;;;;;;;6.80;2.40;;;;;21.26;97580.80;;;;111336;1244;41235;-66
2022/05/02 06:24:26;;;;;;;5.90;2.30;;;;;21.42;97580.40;;;;111719;1243;41242;-67
2022/05/02 06:26:57;;;;;;;7.60;2.90;;;;;21.12;97578.40;;;;111370;1244;41477;-67
2022/05/02 06:29:27;;;;;;;5.80;2.40;;;;;21.24;97582.40;;;;111337;1244;42389;-67
2022/05/02 06:31:58;;;;;;;6.50;2.30;;;;;21.18;97581.00;;;;111264;1244;41121;-66
2022/05/02 06:34:29;;;;;;;5.30;2.20;;;;;21.60;97582.00;;;;111460;1244;41191;-67
2022/05/02 06:37:00;;;;;;;6.60;2.30;;;;;22.14;97586.00;;;;111446;1244;41764;-68
2022/05/02 06:39:56;;;;;;;5.50;2.30;;;;;22.60;97580.80;;;;111342;1244;496343;-68
2022/05/02 06:42:49;;;;;;;5.10;2.30;;;;;23.04;97572.60;;;;111630;1244;42276;-68
2022/05/02 06:45:31;;;;;;;9.50;2.70;;;;;23.20;97567.20;;;;111704;1244;41119;-68
2022/05/02 06:48:22;;;;;;;4.80;2.00;;;;;23.30;97568.20;;;;111849;1244;41582;-70
2022/05/02 06:50:57;;;;;;;6.30;2.10;;;;;23.54;97569.60;;;;111813;1244;41976;-69
2022/05/02 06:53:50;;;;;;;5.40;2.20;;;;;24.24;97568.60;;;;111861;1241;41148;-68
2022/05/02 06:56:42;;;;;;;7.60;2.50;;;;;24.10;97566.40;;;;111840;1243;41791;-68
2022/05/02 06:59:33;;;;;;;8.00;2.70;;;;;23.44;97567.80;;;;111721;1244;41235;-69
2022/05/02 07:02:34;;;;;;;7.10;2.80;;;;;22.76;97572.60;;;;111927;1244;41248;-69
2022/05/02 07:05:12;;;;;;;6.10;2.30;;;;;22.38;97573.20;;;;111434;1244;41147;-67
2022/05/02 07:07:54;;;;;;;5.80;2.30;;;;;22.60;97569.00;;;;111569;1243;41943;-67
2022/05/02 07:10:26;;;;;;;4.70;2.10;;;;;22.90;97570.60;;;;111762;1243;41546;-67
2022/05/02 07:13:23;;;;;;;6.40;2.60;;;;;23.14;97568.60;;;;111649;1244;41579;-68
2022/05/02 07:16:13;;;;;;;5.00;2.20;;;;;23.54;97567.00;;;;111680;1242;41941;-68
2022/05/02 07:19:09;;;;;;;6.50;2.50;;;;;23.02;97567.80;;;;111602;1244;41238;-68
2022/05/02 07:21:50;;;;;;;6.50;2.30;;;;;23.26;97561.80;;;;111719;1243;41340;-69
2022/05/02 07:24:41;;;;;;;4.70;2.30;;;;;23.78;97559.60;;;;111299;1244;41607;-69
2022/05/02 07:27:34;;;;;;;6.20;2.60;;;;;24.04;97561.00;;;;111812;1243;41572;-70
2022/05/02 07:30:06;;;;;;;5.80;2.40;;;;;23.80;97557.40;;;;111508;1243;42503;-67
2022/05/02 07:32:37;;;;;;;8.20;3.00;;;;;23.04;97560.40;;;;111242;1242;42393;-70
2022/05/02 07:35:10;;;;;;;7.10;2.70;;;;;22.34;97561.00;;;;111432;1244;41279;-69
2022/05/02 07:37:44;;;;;;;5.60;2.30;;;;;22.00;97561.00;;;;111395;1244;41267;-69
2022/05/02 07:40:19;;;;;;;6.50;2.60;;;;;21.50;97560.20;;;;111476;1244;41236;-69
2022/05/02 07:42:52;;;;;;;9.00;2.20;;;;;21.90;97560.80;;;;111230;1245;41245;-68
2022/05/02 07:45:28;;;;;;;7.70;2.50;;;;;21.70;97567.00;;;;111341;1244;41140;-69
2022/05/02 07:48:00;;;;;;;5.20;2.20;;;;;21.66;97563.00;;;;111555;1244;41247;-69
2022/05/02 07:50:33;;;;;;;6.50;2.10;;;;;22.22;97570.20;;;;111827;1244;41302;-69
2022/05/02 07:53:06;;;;;;;5.00;2.20;;;;;22.82;97565.80;;;;111432;1244;41643;-69
2022/05/02 07:55:36;;;;;;;6.30;2.40;;;;;23.26;97556.80;;;;111513;1244;41136;-71
2022/05/02 07:58:07;;;;;;;5.80;2.00;;;;;24.14;97556.00;;;;111493;1244;41311;-70
2022/05/02 08:00:37;;;;;;;8.40;2.50;;;;;24.98;97553.60;;;;111573;1244;41138;-70
2022/05/02 08:03:07;;;;;;;6.10;2.60;;;;;25.62;97550.20;;;;111794;1244;41115;-70
2022/05/02 08:05:39;;;;;;;5.90;2.40;;;;;25.22;97548.60;;;;111347;1244;42531;-69
2022/05/02 08:08:28;;;;;;;4.50;2.00;;;;;25.32;97544.80;;;;111486;1244;41145;-69
2022/05/02 08:11:09;;;;;;;7.20;2.50;;;;;26.22;97536.80;;;;111236;1246;42392;-70
2022/05/02 08:14:26;;;;;;;7.60;2.60;;;;;26.10;97529.80;;;;111321;1245;41037;-70
2022/05/02 08:17:02;;;;;;;4.30;2.00;;;;;25.82;97532.60;;;;111296;1244;41685;-70
2022/05/02 08:19:41;;;;;;;6.20;2.20;;;;;26.34;97529.60;;;;111352;1244;41178;-68
2022/05/02 08:29:16;;;;;;;5.00;2.20;;;;;25.96;97522.60;;;;111667;1244;41137;-68
2022/05/02 08:31:46;;;;;;;6.10;2.30;;;;;26.18;97513.80;;;;111696;1244;42189;-68
2022/05/02 08:34:40;;;;;;;6.40;2.30;;;;;25.84;97507.00;;;;111756;1244;41117;-70
2022/05/02 08:37:37;;;;;;;8.40;2.30;;;;;25.52;97502.00;;;;111540;1244;41150;-71
2022/05/02 08:40:51;;;;;;;6.10;2.40;;;;;25.68;97500.40;;;;111742;1244;41753;-72
2022/05/02 08:43:39;;;;;;;6.20;2.00;;;;;25.32;97494.40;;;;111662;1244;41209;-70
2022/05/02 08:46:28;;;;;;;4.70;2.20;;;;;26.38;97484.80;;;;111848;1244;41448;-68
2022/05/02 08:52:27;;;;;;;6.40;2.40;;;;;26.88;97486.60;;;;111765;1244;41338;-70
2022/05/02 08:55:11;;;;;;;6.20;2.30;;;;;26.90;97478.20;;;;111690;1244;41149;-72
2022/05/02 08:58:14;;;;;;;4.80;2.20;;;;;26.62;97479.80;;;;111786;1244;41517;-69
2022/05/02 09:01:06;;;;;;;4.30;2.00;;;;;25.96;97473.80;;;;111552;1244;42539;-71
2022/05/02 09:03:54;;;;;;;6.50;2.10;;;;;25.88;97475.40;;;;111544;1244;41895;-70
2022/05/02 09:07:07;;;;;;;6.20;2.40;;;;;26.74;97471.40;;;;111711;1244;41129;-69
2022/05/02 09:10:20;;;;;;;6.50;2.30;;;;;26.88;97467.00;;;;110858;1252;40924;-69
2022/05/02 09:13:19;;;;;;;8.10;2.30;;;;;27.06;97462.40;;;;110734;1252;41187;-71
2022/05/02 09:16:20;;;;;;;6.30;2.60;;;;;27.16;97462.20;;;;110896;1252;41347;-69
2022/05/02 09:19:03;;;;;;;6.30;2.20;;;;;26.42;97465.80;;;;110816;1252;41539;-69
2022/05/02 09:21:48;;;;;;;9.80;2.70;;;;;26.18;97462.20;;;;110787;1251;41618;-69
2022/05/02 09:24:22;;;;;;;4.60;1.80;;;;;26.50;97460.60;;;;110864;1252;41141;-70
2022/05/02 09:27:36;;;;;;;6.00;2.10;;;;;26.30;97459.80;;;;110917;1250;41154;-70
2022/05/02 09:30:42;;;;;;;4.50;1.70;;;;;26.88;97451.00;;;;110638;1254;41531;-69
2022/05/02 09:33:48;;;;;;;3.60;1.60;;;;;27.92;97442.60;;;;110926;1251;41193;-69
2022/05/02 09:37:05;;;;;;;3.60;1.60;;;;;29.02;97436.20;;;;110706;1254;41369;-70
2022/05/02 09:40:07;;;;;;;6.10;2.00;;;;;30.04;97436.80;;;;110787;1252;42380;-68
2022/05/02 09:43:03;;;;;;;4.00;1.70;;;;;29.06;97433.60;;;;110690;1253;41267;-69
2022/05/02 09:52:00;;;;;;;4.40;2.00;;;;;28.74;97428.20;;;;111654;1244;41285;-69
2022/05/02 09:57:43;;;;;;;4.40;1.90;;;;;27.36;97425.40;;;;110772;1252;41604;-69
2022/05/02 10:03:36;;;;;;;5.20;1.90;;;;;25.72;97425.20;;;;110662;1251;42683;-69
2022/05/02 10:06:10;;;;;;;5.60;2.20;;;;;25.30;97420.00;;;;110196;1257;41603;-70
2022/05/02 10:08:49;;;;;;;5.50;2.10;;;;;24.86;97423.80;;;;110242;1258;41148;-71
2022/05/02 10:11:57;;;;;;;5.50;2.20;;;;;24.76;97416.80;;;;110266;1258;41989;-70
2022/05/02 10:14:56;;;;;;;3.20;1.80;;;;;25.52;97399.60;;;;110290;1258;41531;-70
2022/05/02 10:17:53;;;;;;;6.20;1.90;;;;;26.12;97398.00;;;;110210;1258;41621;-70
2022/05/02 10:20:23;;;;;;;4.20;1.70;;;;;27.46;97399.40;;;;110136;1257;41694;-68
2022/05/02 10:23:17;;;;;;;4.30;1.80;;;;;27.48;97400.60;;;;110232;1257;41998;-70
2022/05/02 10:25:58;;;;;;;3.60;1.60;;;;;27.44;97390.80;;;;110369;1257;41424;-71
2022/05/02 10:29:01;;;;;;;5.00;1.80;;;;;27.90;97387.80;;;;110346;1258;41624;-70
2022/05/02 10:31:34;;;;;;;6.10;1.90;;;;;28.24;97383.20;;;;110670;1254;41383;-70
2022/05/02 10:34:04;;;;;;;4.40;1.90;;;;;28.66;97379.00;;;;111014;1251;41338;-70
2022/05/02 10:36:39;;;;;;;3.90;1.70;;;;;28.64;97375.60;;;;110922;1251;42694;-71
2022/05/02 10:39:29;;;;;;;4.80;2.00;;;;;28.00;97378.60;;;;111066;1249;41261;-71
2022/05/02 10:41:59;;;;;;;6.90;2.20;;;;;28.28;97381.80;;;;111065;1249;43020;-71
2022/05/02 10:44:29;;;;;;;4.90;2.10;;;;;27.76;97374.80;;;;111499;1244;41154;-70
2022/05/02 10:47:03;;;;;;;4.70;1.90;;;;;26.90;97373.00;;;;111671;1244;41249;-71
2022/05/02 10:50:03;;;;;;;4.60;1.90;;;;;27.12;97374.20;;;;111627;1244;40731;-69
2022/05/02 10:52:49;;;;;;;;;;;;;27.30;97370.60;;;;111678;1244;42164;-69
2022/05/02 10:55:31;;;;;;;6.00;2.00;;;;;27.08;97368.60;;;;111910;1244;42349;-69
2022/05/02 10:58:06;;;;;;;3.20;1.60;;;;;27.28;97368.60;;;;111588;1242;41155;-71
2022/05/02 11:00:50;;;;;;;5.10;1.80;;;;;26.50;97370.00;;;;111927;1242;41246;-69
2022/05/02 11:03:21;;;;;;;5.40;2.10;;;;;26.26;97371.60;;;;111699;1244;41161;-73
2022/05/02 11:06:22;;;;;;;5.20;2.00;;;;;25.84;97371.80;;;;111622;1244;41187;-71
2022/05/02 11:09:00;;;;;;;3.10;1.60;;;;;25.14;97366.60;;;;111583;1244;41137;-70
2022/05/02 11:11:46;;;;;;;5.00;1.90;;;;;25.32;97361.20;;;;111316;1245;41150;-71
2022/05/02 11:14:46;;;;;;;3.50;1.70;;;;;25.82;97358.60;;;;111816;1244;41182;-71
2022/05/02 11:17:33;;;;;;;2.90;1.60;;;;;26.10;97356.00;;;;111450;1244;41946;-71
2022/05/02 11:20:43;;;;;;;4.00;1.80;;;;;26.30;97353.00;;;;111578;1242;42554;-71
2022/05/02 11:23:53;;;;;;;5.50;1.90;;;;;26.30;97356.60;;;;111171;1244;41150;-69
2022/05/02 11:26:37;;;;;;;3.80;1.60;;;;;26.30;97354.80;;;;111644;1244;41607;-70
2022/05/02 11:29:37;;;;;;;3.60;1.80;;;;;26.20;97354.20;;;;111479;1244;41167;-71
2022/05/02 11:32:54;;;;;;;4.60;1.60;;;;;26.18;97352.80;;;;111111;1244;41147;-70
2022/05/02 11:35:32;;;;;;;4.40;1.90;;;;;26.48;97348.20;;;;111317;1247;41706;-70
2022/05/02 11:38:24;;;;;;;4.70;1.80;;;;;26.70;97349.20;;;;111557;1244;41208;-72
2022/05/02 11:41:18;;;;;;;3.60;1.60;;;;;26.50;97347.20;;;;111500;1244;41140;-72
2022/05/02 11:43:49;;;;;;;3.20;1.60;;;;;26.36;97347.80;;;;111474;1244;41169;-72
2022/05/02 11:46:26;;;;;;;3.80;1.90;;;;;26.30;97348.80;;;;111338;1244;41527;-71
2022/05/02 11:49:08;;;;;;;7.10;2.00;;;;;26.20;97343.60;;;;111453;1244;41458;-73
2022/05/02 11:51:50;;;;;;;7.00;2.00;;;;;25.86;97345.00;;;;111230;1245;41152;-69
2022/05/02 11:54:39;;;;;;;2.70;1.50;;;;;25.58;97341.80;;;;111275;1244;41968;-69
2022/05/02 11:57:20;;;;;;;7.50;1.90;;;;;25.30;97341.80;;;;111471;1244;41243;-69
2022/05/02 12:00:07;;;;;;;4.10;1.70;;;;;25.20;97334.40;;;;111590;1244;41142;-69
2022/05/02 12:02:38;;;;;;;5.10;1.80;;;;;25.10;97336.60;;;;111696;1244;41264;-70
2022/05/02 12:05:25;;;;;;;3.60;1.60;;;;;24.86;97335.20;;;;111686;1243;41156;-70
2022/05/02 12:08:02;;;;;;;2.90;1.50;;;;;24.80;97335.40;;;;111680;1243;41126;-70
2022/05/02 12:10:42;;;;;;;4.60;2.00;;;;;24.80;97333.60;;;;111492;1244;41155;-69
2022/05/02 12:13:16;;;;;;;3.80;1.60;;;;;24.76;97329.20;;;;111569;1243;41604;-70
2022/05/02 12:15:59;;;;;;;6.20;2.00;;;;;24.78;97324.20;;;;111486;1247;41750;-69
2022/05/02 12:18:51;;;;;;;3.40;1.60;;;;;24.70;97318.60;;;;111682;1243;41142;-70
2022/05/02 12:21:30;;;;;;;5.30;1.70;;;;;24.70;97316.40;;;;111538;1243;41139;-70
2022/05/02 12:24:04;;;;;;;3.70;1.70;;;;;24.70;97315.40;;;;111689;1243;41515;-70
2022/05/02 12:26:34;;;;;;;4.90;1.80;;;;;24.70;97318.00;;;;111600;1244;41139;-69
2022/05/02 12:29:13;;;;;;;4.90;1.70;;;;;24.60;97315.20;;;;111657;1244;41255;-69
2022/05/02 12:31:43;;;;;;;4.80;1.90;;;;;24.40;97316.00;;;;111629;1244;41245;-70
2022/05/02 12:34:12;;;;;;;4.50;1.90;;;;;24.30;97310.00;;;;111592;1244;41133;-71
2022/05/02 12:36:44;;;;;;;4.00;1.80;;;;;24.20;97306.80;;;;111560;1244;41142;-71
2022/05/02 12:39:35;;;;;;;2.90;1.50;;;;;24.18;97301.40;;;;111707;1244;41701;-70
2022/05/02 12:42:23;;;;;;;3.10;1.60;;;;;24.30;97299.80;;;;111467;1244;41146;-70
2022/05/02 12:45:10;;;;;;;4.30;1.90;;;;;24.30;97296.40;;;;111558;1242;41263;-69
2022/05/02 12:47:56;;;;;;;4.10;1.70;;;;;24.30;97296.00;;;;111529;1244;41132;-71
2022/05/02 12:50:28;;;;;;;4.80;1.70;;;;;24.30;97297.40;;;;111683;1244;41595;-71
2022/05/02 12:53:00;;;;;;;3.90;1.70;;;;;24.26;97298.20;;;;111599;1244;41987;-70
2022/05/02 12:55:31;;;;;;;2.70;1.60;;;;;24.30;97290.80;;;;111682;1243;41140;-70
2022/05/02 13:00:52;;;;;;;4.70;2.00;;;;;24.42;97289.00;;;;111504;1242;41271;-71
2022/05/02 13:03:30;;;;;;;5.50;1.90;;;;;24.52;97284.80;;;;111547;1241;41131;-72
2022/05/02 13:06:07;;;;;;;6.00;2.00;;;;;24.62;97280.00;;;;111495;1244;41169;-70
2022/05/02 13:08:41;;;;;;;3.90;1.80;;;;;24.80;97278.20;;;;111273;1244;41504;-70
2022/05/02 13:11:12;;;;;;;6.40;2.20;;;;;24.88;97274.80;;;;111532;1244;41132;-69
2022/05/02 13:13:50;;;;;;;5.20;2.10;;;;;24.80;97271.00;;;;111535;1244;41138;-69
2022/05/02 13:16:30;;;;;;;7.50;2.00;;;;;24.80;97270.20;;;;111498;1242;41138;-71
2022/05/02 13:19:03;;;;;;;5.80;2.10;;;;;24.90;97272.60;;;;111509;1244;41120;-71
2022/05/02 13:21:33;;;;;;;5.30;2.00;;;;;24.88;97270.80;;;;111653;1243;41738;-70
2022/05/02 13:24:14;;;;;;;2.80;1.50;;;;;24.88;97270.80;;;;111611;1244;41250;-69
2022/05/02 13:27:19;;;;;;;5.40;1.90;;;;;24.90;97271.20;;;;111700;1244;41170;-69
2022/05/02 13:29:57;;;;;;;4.30;2.00;;;;;24.66;97262.60;;;;111463;1244;41632;-70
2022/05/02 13:32:32;;;;;;;4.90;2.10;;;;;24.70;97266.60;;;;111801;1243;41885;-68
2022/05/02 13:35:05;;;;;;;4.30;1.90;;;;;24.44;97257.80;;;;111844;1244;41137;-71
2022/05/02 13:37:53;;;;;;;4.10;1.70;;;;;24.40;97263.20;;;;111831;1243;41504;-71
2022/05/02 13:40:51;;;;;;;5.60;2.00;;;;;24.30;97261.00;;;;111874;1242;41722;-70
2022/05/02 13:43:44;;;;;;;4.10;1.70;;;;;24.20;97263.20;;;;111694;1243;41178;-69